sensor_id;sensor_type;location;lat;lon;timestamp;temperature;humidity
13416;DHT22;6779;50.150;8.680;2022-10-26T00:00:23;12.00;99.90
13416;DHT22;6779;50.150;8.680;2022-10-26T00:02:49;12.10;99.90
13416;DHT22;6779;50.150;8.680;2022-10-26T00:05:15;12.10;99.90
13416;DHT22;6779;50.150;8.680;2022-10-26T00:07:40;12.20;99.90
13416;DHT22;6779;50.150;8.680;2022-10-26T00:10:06;12.20;99.90
13416;DHT22;6779;50.150;8.680;2022-10-26T00:12:32;12.20;99.90
13416;DHT22;6779;50.150;8.680;2022-10-26T00:14:57;12.20;99.90
13416;DHT22;6779;50.150;8.680;2022-10-26T00:17:23;12.20;99.90
13416;DHT22;6779;50.150;8.680;2022-10-26T00:19:48;12.20;99.90
13416;DHT22;6779;50.150;8.680;2022-10-26T00:22:14;12.20;99.90
13416;DHT22;6779;50.150;8.680;2022-10-26T00:24:39;12.20;99.90
13416;DHT22;6779;50.150;8.680;2022-10-26T00:27:05;12.20;99.90
13416;DHT22;6779;50.150;8.680;2022-10-26T00:29:30;12.20;99.90
13416;DHT22;6779;50.150;8.680;2022-10-26T00:31:56;12.20;99.90
13416;DHT22;6779;50.150;8.680;2022-10-26T00:34:21;12.20;99.90
13416;DHT22;6779;50.150;8.680;2022-10-26T00:36:47;12.20;99.90
13416;DHT22;6779;50.150;8.680;2022-10-26T00:39:13;12.30;99.90
13416;DHT22;6779;50.150;8.680;2022-10-26T00:41:39;12.30;99.90
13416;DHT22;6779;50.150;8.680;2022-10-26T00:47:22;12.30;99.90
13416;DHT22;6779;50.150;8.680;2022-10-26T00:49:50;12.40;99.90
13416;DHT22;6779;50.150;8.680;2022-10-26T00:52:17;12.40;99.90
13416;DHT22;6779;50.150;8.680;2022-10-26T00:54:44;12.40;99.90
13416;DHT22;6779;50.150;8.680;2022-10-26T00:57:11;12.40;99.90
13416;DHT22;6779;50.150;8.680;2022-10-26T00:59:38;12.40;99.90
13416;DHT22;6779;50.150;8.680;2022-10-26T01:02:04;12.30;99.90
13416;DHT22;6779;50.150;8.680;2022-10-26T01:04:29;12.30;99.90
13416;DHT22;6779;50.150;8.680;2022-10-26T01:06:55;12.30;99.90
13416;DHT22;6779;50.150;8.680;2022-10-26T01:09:21;12.30;99.90
13416;DHT22;6779;50.150;8.680;2022-10-26T01:11:47;12.30;99.90
13416;DHT22;6779;50.150;8.680;2022-10-26T01:14:15;12.40;99.90
13416;DHT22;6779;50.150;8.680;2022-10-26T01:19:46;12.30;99.90
13416;DHT22;6779;50.150;8.680;2022-10-26T01:22:20;12.30;99.90
13416;DHT22;6779;50.150;8.680;2022-10-26T01:27:33;12.30;99.90
13416;DHT22;6779;50.150;8.680;2022-10-26T01:30:10;12.40;99.90
13416;DHT22;6779;50.150;8.680;2022-10-26T01:35:51;12.30;99.90
13416;DHT22;6779;50.150;8.680;2022-10-26T01:43:51;12.30;99.90
13416;DHT22;6779;50.150;8.680;2022-10-26T01:46:20;12.30;99.90
13416;DHT22;6779;50.150;8.680;2022-10-26T01:48:50;12.30;99.90
13416;DHT22;6779;50.150;8.680;2022-10-26T01:51:18;12.30;99.90
13416;DHT22;6779;50.150;8.680;2022-10-26T01:53:45;12.40;99.90
13416;DHT22;6779;50.150;8.680;2022-10-26T01:56:21;12.40;99.90
13416;DHT22;6779;50.150;8.680;2022-10-26T02:01:23;12.30;99.90
13416;DHT22;6779;50.150;8.680;2022-10-26T02:09:52;12.40;99.90
13416;DHT22;6779;50.150;8.680;2022-10-26T02:14:59;12.40;99.90
13416;DHT22;6779;50.150;8.680;2022-10-26T02:17:32;12.40;99.90
13416;DHT22;6779;50.150;8.680;2022-10-26T02:20:05;12.40;99.90
13416;DHT22;6779;50.150;8.680;2022-10-26T02:22:35;12.50;99.90
13416;DHT22;6779;50.150;8.680;2022-10-26T02:25:07;12.50;99.90
13416;DHT22;6779;50.150;8.680;2022-10-26T02:27:37;12.40;99.90
13416;DHT22;6779;50.150;8.680;2022-10-26T02:30:06;12.40;99.90
13416;DHT22;6779;50.150;8.680;2022-10-26T02:32:35;12.40;99.90
13416;DHT22;6779;50.150;8.680;2022-10-26T02:35:03;12.40;99.90
13416;DHT22;6779;50.150;8.680;2022-10-26T02:37:31;12.40;99.90
13416;DHT22;6779;50.150;8.680;2022-10-26T02:40:00;12.40;99.90
13416;DHT22;6779;50.150;8.680;2022-10-26T02:42:27;12.40;99.90
13416;DHT22;6779;50.150;8.680;2022-10-26T02:45:00;12.40;99.90
13416;DHT22;6779;50.150;8.680;2022-10-26T02:47:27;12.40;99.90
13416;DHT22;6779;50.150;8.680;2022-10-26T02:49:53;12.40;99.90
13416;DHT22;6779;50.150;8.680;2022-10-26T02:52:30;12.40;99.90
13416;DHT22;6779;50.150;8.680;2022-10-26T02:57:50;12.40;99.90
13416;DHT22;6779;50.150;8.680;2022-10-26T03:00:19;12.40;99.90
13416;DHT22;6779;50.150;8.680;2022-10-26T03:02:50;12.40;99.90
13416;DHT22;6779;50.150;8.680;2022-10-26T03:05:22;12.40;99.90
13416;DHT22;6779;50.150;8.680;2022-10-26T03:07:48;12.40;99.90
13416;DHT22;6779;50.150;8.680;2022-10-26T03:10:14;12.40;99.90
13416;DHT22;6779;50.150;8.680;2022-10-26T03:12:39;12.40;99.90
13416;DHT22;6779;50.150;8.680;2022-10-26T03:15:05;12.40;99.90
13416;DHT22;6779;50.150;8.680;2022-10-26T03:17:31;12.40;99.90
13416;DHT22;6779;50.150;8.680;2022-10-26T03:19:56;12.40;99.90
13416;DHT22;6779;50.150;8.680;2022-10-26T03:22:22;12.40;99.90
13416;DHT22;6779;50.150;8.680;2022-10-26T03:24:48;12.40;99.90
13416;DHT22;6779;50.150;8.680;2022-10-26T03:27:13;12.40;99.90
13416;DHT22;6779;50.150;8.680;2022-10-26T03:29:39;12.40;99.90
13416;DHT22;6779;50.150;8.680;2022-10-26T03:32:05;12.40;99.90
13416;DHT22;6779;50.150;8.680;2022-10-26T03:34:30;12.40;99.90
13416;DHT22;6779;50.150;8.680;2022-10-26T03:36:56;12.40;99.90
13416;DHT22;6779;50.150;8.680;2022-10-26T03:39:21;12.40;99.90
13416;DHT22;6779;50.150;8.680;2022-10-26T03:41:47;12.40;99.90
13416;DHT22;6779;50.150;8.680;2022-10-26T03:44:12;12.30;99.90
13416;DHT22;6779;50.150;8.680;2022-10-26T03:46:38;12.30;99.90
13416;DHT22;6779;50.150;8.680;2022-10-26T03:49:04;12.20;99.90
13416;DHT22;6779;50.150;8.680;2022-10-26T03:51:29;12.20;99.90
13416;DHT22;6779;50.150;8.680;2022-10-26T03:53:55;12.20;99.90
13416;DHT22;6779;50.150;8.680;2022-10-26T03:56:20;12.20;99.90
13416;DHT22;6779;50.150;8.680;2022-10-26T03:58:46;12.20;99.90
13416;DHT22;6779;50.150;8.680;2022-10-26T04:01:11;12.20;99.90
13416;DHT22;6779;50.150;8.680;2022-10-26T04:03:37;12.20;99.90
13416;DHT22;6779;50.150;8.680;2022-10-26T04:06:03;12.20;99.90
13416;DHT22;6779;50.150;8.680;2022-10-26T04:08:28;12.20;99.90
13416;DHT22;6779;50.150;8.680;2022-10-26T04:10:54;12.30;99.90
13416;DHT22;6779;50.150;8.680;2022-10-26T04:13:19;12.30;99.90
13416;DHT22;6779;50.150;8.680;2022-10-26T04:15:45;12.30;99.90
13416;DHT22;6779;50.150;8.680;2022-10-26T04:18:11;12.30;99.90
13416;DHT22;6779;50.150;8.680;2022-10-26T04:20:37;12.30;99.90
13416;DHT22;6779;50.150;8.680;2022-10-26T04:23:05;12.30;99.90
13416;DHT22;6779;50.150;8.680;2022-10-26T04:25:32;12.30;99.90
13416;DHT22;6779;50.150;8.680;2022-10-26T04:27:58;12.30;99.90
13416;DHT22;6779;50.150;8.680;2022-10-26T04:30:23;12.20;99.90
13416;DHT22;6779;50.150;8.680;2022-10-26T04:32:49;12.20;99.90
13416;DHT22;6779;50.150;8.680;2022-10-26T04:35:15;12.20;99.90
13416;DHT22;6779;50.150;8.680;2022-10-26T04:37:41;12.20;99.90
13416;DHT22;6779;50.150;8.680;2022-10-26T04:40:06;12.20;99.90
13416;DHT22;6779;50.150;8.680;2022-10-26T04:42:40;12.20;99.90
13416;DHT22;6779;50.150;8.680;2022-10-26T04:45:06;12.10;99.90
13416;DHT22;6779;50.150;8.680;2022-10-26T04:47:31;12.10;99.90
13416;DHT22;6779;50.150;8.680;2022-10-26T04:49:57;12.10;99.90
13416;DHT22;6779;50.150;8.680;2022-10-26T04:52:22;12.10;99.90
13416;DHT22;6779;50.150;8.680;2022-10-26T04:54:48;12.10;99.90
13416;DHT22;6779;50.150;8.680;2022-10-26T04:57:13;12.20;99.90
13416;DHT22;6779;50.150;8.680;2022-10-26T04:59:39;12.20;99.90
13416;DHT22;6779;50.150;8.680;2022-10-26T05:02:04;12.20;99.90
13416;DHT22;6779;50.150;8.680;2022-10-26T05:04:30;12.20;99.90
13416;DHT22;6779;50.150;8.680;2022-10-26T05:06:55;12.20;99.90
13416;DHT22;6779;50.150;8.680;2022-10-26T05:09:21;12.20;99.90
13416;DHT22;6779;50.150;8.680;2022-10-26T05:11:46;12.10;99.90
13416;DHT22;6779;50.150;8.680;2022-10-26T05:14:12;12.20;99.90
13416;DHT22;6779;50.150;8.680;2022-10-26T05:16:38;12.20;99.90
13416;DHT22;6779;50.150;8.680;2022-10-26T05:19:04;12.10;99.90
13416;DHT22;6779;50.150;8.680;2022-10-26T05:21:29;12.10;99.90
13416;DHT22;6779;50.150;8.680;2022-10-26T05:23:55;12.20;99.90
13416;DHT22;6779;50.150;8.680;2022-10-26T05:26:23;12.10;99.90
13416;DHT22;6779;50.150;8.680;2022-10-26T05:28:50;12.10;99.90
13416;DHT22;6779;50.150;8.680;2022-10-26T05:31:16;12.10;99.90
13416;DHT22;6779;50.150;8.680;2022-10-26T05:33:41;12.10;99.90
13416;DHT22;6779;50.150;8.680;2022-10-26T05:36:07;12.10;99.90
13416;DHT22;6779;50.150;8.680;2022-10-26T05:38:33;12.10;99.90
13416;DHT22;6779;50.150;8.680;2022-10-26T05:40:58;12.10;99.90
13416;DHT22;6779;50.150;8.680;2022-10-26T05:43:25;12.10;99.90
13416;DHT22;6779;50.150;8.680;2022-10-26T05:45:52;12.10;99.90
13416;DHT22;6779;50.150;8.680;2022-10-26T05:48:18;12.20;99.90
13416;DHT22;6779;50.150;8.680;2022-10-26T05:50:44;12.20;99.90
13416;DHT22;6779;50.150;8.680;2022-10-26T05:53:09;12.20;99.90
13416;DHT22;6779;50.150;8.680;2022-10-26T05:55:35;12.20;99.90
13416;DHT22;6779;50.150;8.680;2022-10-26T05:58:01;12.10;99.90
13416;DHT22;6779;50.150;8.680;2022-10-26T06:00:28;12.20;99.90
13416;DHT22;6779;50.150;8.680;2022-10-26T06:05:54;12.20;99.90
13416;DHT22;6779;50.150;8.680;2022-10-26T06:08:22;12.20;99.90
13416;DHT22;6779;50.150;8.680;2022-10-26T06:10:48;12.20;99.90
13416;DHT22;6779;50.150;8.680;2022-10-26T06:13:15;12.30;99.90
13416;DHT22;6779;50.150;8.680;2022-10-26T06:24:45;12.30;99.90
13416;DHT22;6779;50.150;8.680;2022-10-26T06:28:00;12.40;99.90
13416;DHT22;6779;50.150;8.680;2022-10-26T06:30:07;12.30;99.90
13416;DHT22;6779;50.150;8.680;2022-10-26T06:32:34;12.40;99.90
13416;DHT22;6779;50.150;8.680;2022-10-26T06:37:35;12.40;99.90
13416;DHT22;6779;50.150;8.680;2022-10-26T06:40:02;12.40;99.90
13416;DHT22;6779;50.150;8.680;2022-10-26T06:42:30;12.40;99.90
13416;DHT22;6779;50.150;8.680;2022-10-26T06:44:56;12.40;99.90
13416;DHT22;6779;50.150;8.680;2022-10-26T06:50:31;12.50;99.90
13416;DHT22;6779;50.150;8.680;2022-10-26T06:55:44;12.50;99.90
13416;DHT22;6779;50.150;8.680;2022-10-26T06:58:19;12.50;99.90
13416;DHT22;6779;50.150;8.680;2022-10-26T07:00:47;12.60;99.90
13416;DHT22;6779;50.150;8.680;2022-10-26T07:03:13;12.60;99.90
13416;DHT22;6779;50.150;8.680;2022-10-26T07:05:39;12.70;99.90
13416;DHT22;6779;50.150;8.680;2022-10-26T07:08:05;12.70;99.90
13416;DHT22;6779;50.150;8.680;2022-10-26T07:10:31;12.70;99.90
13416;DHT22;6779;50.150;8.680;2022-10-26T07:12:56;12.70;99.90
13416;DHT22;6779;50.150;8.680;2022-10-26T07:15:22;12.70;99.90
13416;DHT22;6779;50.150;8.680;2022-10-26T07:17:48;12.70;99.90
13416;DHT22;6779;50.150;8.680;2022-10-26T07:20:15;12.80;99.90
13416;DHT22;6779;50.150;8.680;2022-10-26T07:22:41;12.80;99.90
13416;DHT22;6779;50.150;8.680;2022-10-26T07:25:08;12.70;99.90
13416;DHT22;6779;50.150;8.680;2022-10-26T07:27:33;12.80;99.90
13416;DHT22;6779;50.150;8.680;2022-10-26T07:29:59;12.80;99.90
13416;DHT22;6779;50.150;8.680;2022-10-26T07:32:25;12.80;99.90
13416;DHT22;6779;50.150;8.680;2022-10-26T07:34:50;12.90;99.90
13416;DHT22;6779;50.150;8.680;2022-10-26T07:37:16;12.90;99.90
13416;DHT22;6779;50.150;8.680;2022-10-26T07:39:41;12.90;99.90
13416;DHT22;6779;50.150;8.680;2022-10-26T07:42:07;13.00;99.90
13416;DHT22;6779;50.150;8.680;2022-10-26T07:44:33;13.00;99.90
13416;DHT22;6779;50.150;8.680;2022-10-26T07:46:59;13.10;99.90
13416;DHT22;6779;50.150;8.680;2022-10-26T07:49:25;13.10;99.90
13416;DHT22;6779;50.150;8.680;2022-10-26T07:51:50;13.10;99.90
13416;DHT22;6779;50.150;8.680;2022-10-26T07:54:16;13.10;99.90
13416;DHT22;6779;50.150;8.680;2022-10-26T07:56:41;13.20;99.90
13416;DHT22;6779;50.150;8.680;2022-10-26T07:59:09;13.20;99.90
13416;DHT22;6779;50.150;8.680;2022-10-26T08:01:35;13.30;99.90
13416;DHT22;6779;50.150;8.680;2022-10-26T08:04:02;13.30;99.90
13416;DHT22;6779;50.150;8.680;2022-10-26T08:06:27;13.30;99.90
13416;DHT22;6779;50.150;8.680;2022-10-26T08:08:53;13.50;99.90
13416;DHT22;6779;50.150;8.680;2022-10-26T08:11:18;13.60;99.90
13416;DHT22;6779;50.150;8.680;2022-10-26T08:13:44;13.60;99.90
13416;DHT22;6779;50.150;8.680;2022-10-26T08:16:09;13.70;99.90
13416;DHT22;6779;50.150;8.680;2022-10-26T08:18:35;13.70;99.90
13416;DHT22;6779;50.150;8.680;2022-10-26T08:21:06;13.80;99.90
13416;DHT22;6779;50.150;8.680;2022-10-26T08:23:32;13.80;99.90
13416;DHT22;6779;50.150;8.680;2022-10-26T08:25:59;13.90;99.90
13416;DHT22;6779;50.150;8.680;2022-10-26T08:28:25;13.90;99.90
13416;DHT22;6779;50.150;8.680;2022-10-26T08:30:51;14.10;99.90
13416;DHT22;6779;50.150;8.680;2022-10-26T08:33:16;14.10;99.90
13416;DHT22;6779;50.150;8.680;2022-10-26T08:35:42;14.20;99.90
13416;DHT22;6779;50.150;8.680;2022-10-26T08:38:07;14.40;99.90
13416;DHT22;6779;50.150;8.680;2022-10-26T08:40:37;14.60;99.90
13416;DHT22;6779;50.150;8.680;2022-10-26T08:43:24;15.00;97.10
13416;DHT22;6779;50.150;8.680;2022-10-26T08:46:01;15.20;1.00
13416;DHT22;6779;50.150;8.680;2022-10-26T08:48:34;15.30;1.00
13416;DHT22;6779;50.150;8.680;2022-10-26T08:51:04;15.40;99.90
13416;DHT22;6779;50.150;8.680;2022-10-26T08:53:47;15.40;99.90
13416;DHT22;6779;50.150;8.680;2022-10-26T09:01:17;15.40;99.90
13416;DHT22;6779;50.150;8.680;2022-10-26T09:03:43;15.40;99.90
13416;DHT22;6779;50.150;8.680;2022-10-26T09:06:12;15.40;99.90
13416;DHT22;6779;50.150;8.680;2022-10-26T09:11:33;15.50;1.00
13416;DHT22;6779;50.150;8.680;2022-10-26T09:14:33;15.60;1.00
13416;DHT22;6779;50.150;8.680;2022-10-26T09:25:22;15.50;99.90
13416;DHT22;6779;50.150;8.680;2022-10-26T09:27:55;15.50;99.90
13416;DHT22;6779;50.150;8.680;2022-10-26T09:30:22;15.70;99.90
13416;DHT22;6779;50.150;8.680;2022-10-26T09:32:55;15.80;99.90
13416;DHT22;6779;50.150;8.680;2022-10-26T09:35:46;15.80;99.90
13416;DHT22;6779;50.150;8.680;2022-10-26T09:38:50;15.80;99.90
13416;DHT22;6779;50.150;8.680;2022-10-26T09:41:40;15.90;99.90
13416;DHT22;6779;50.150;8.680;2022-10-26T09:44:17;16.00;99.90
13416;DHT22;6779;50.150;8.680;2022-10-26T09:46:52;16.00;99.90
13416;DHT22;6779;50.150;8.680;2022-10-26T09:49:24;16.30;99.90
13416;DHT22;6779;50.150;8.680;2022-10-26T09:51:54;16.30;99.90
13416;DHT22;6779;50.150;8.680;2022-10-26T09:54:20;16.30;1.00
13416;DHT22;6779;50.150;8.680;2022-10-26T09:56:51;16.40;99.90
13416;DHT22;6779;50.150;8.680;2022-10-26T09:59:21;16.60;1.00
13416;DHT22;6779;50.150;8.680;2022-10-26T10:01:48;16.60;1.00
13416;DHT22;6779;50.150;8.680;2022-10-26T10:06:51;16.70;99.90
13416;DHT22;6779;50.150;8.680;2022-10-26T10:09:22;17.00;1.00
13416;DHT22;6779;50.150;8.680;2022-10-26T10:11:56;17.20;99.90
13416;DHT22;6779;50.150;8.680;2022-10-26T10:14:25;17.40;1.00
13416;DHT22;6779;50.150;8.680;2022-10-26T10:19:36;17.20;99.90
13416;DHT22;6779;50.150;8.680;2022-10-26T10:22:08;17.20;99.90
13416;DHT22;6779;50.150;8.680;2022-10-26T10:24:39;17.10;99.90
13416;DHT22;6779;50.150;8.680;2022-10-26T10:27:16;17.00;99.90
13416;DHT22;6779;50.150;8.680;2022-10-26T10:29:52;17.00;1.00
13416;DHT22;6779;50.150;8.680;2022-10-26T10:32:20;16.90;99.90
13416;DHT22;6779;50.150;8.680;2022-10-26T10:34:47;16.80;61.90
13416;DHT22;6779;50.150;8.680;2022-10-26T10:37:31;16.80;1.00
13416;DHT22;6779;50.150;8.680;2022-10-26T10:39:59;16.90;1.00
13416;DHT22;6779;50.150;8.680;2022-10-26T10:42:31;17.40;99.90
13416;DHT22;6779;50.150;8.680;2022-10-26T10:44:58;19.80;99.90
13416;DHT22;6779;50.150;8.680;2022-10-26T10:47:32;22.10;99.90
13416;DHT22;6779;50.150;8.680;2022-10-26T10:50:10;22.90;24.00
13416;DHT22;6779;50.150;8.680;2022-10-26T10:52:40;22.60;25.40
13416;DHT22;6779;50.150;8.680;2022-10-26T11:00:21;19.80;99.90
13416;DHT22;6779;50.150;8.680;2022-10-26T11:06:05;19.90;99.90
13416;DHT22;6779;50.150;8.680;2022-10-26T11:11:14;19.60;99.90
13416;DHT22;6779;50.150;8.680;2022-10-26T11:14:01;19.60;99.90
13416;DHT22;6779;50.150;8.680;2022-10-26T11:16:51;20.20;99.90
13416;DHT22;6779;50.150;8.680;2022-10-26T11:19:33;22.50;68.60
13416;DHT22;6779;50.150;8.680;2022-10-26T11:22:03;25.00;1.00
13416;DHT22;6779;50.150;8.680;2022-10-26T11:24:40;26.40;1.00
13416;DHT22;6779;50.150;8.680;2022-10-26T11:27:29;25.40;1.00
13416;DHT22;6779;50.150;8.680;2022-10-26T11:30:01;23.50;1.00
13416;DHT22;6779;50.150;8.680;2022-10-26T11:32:40;22.40;1.00
13416;DHT22;6779;50.150;8.680;2022-10-26T11:35:25;21.80;32.00
13416;DHT22;6779;50.150;8.680;2022-10-26T11:38:15;21.50;78.40
13416;DHT22;6779;50.150;8.680;2022-10-26T11:43:32;20.60;99.90
13416;DHT22;6779;50.150;8.680;2022-10-26T11:46:03;20.00;99.90
13416;DHT22;6779;50.150;8.680;2022-10-26T11:48:58;19.90;99.90
13416;DHT22;6779;50.150;8.680;2022-10-26T11:53:55;19.40;99.90
13416;DHT22;6779;50.150;8.680;2022-10-26T11:56:30;19.00;1.00
13416;DHT22;6779;50.150;8.680;2022-10-26T11:58:57;18.90;1.00
13416;DHT22;6779;50.150;8.680;2022-10-26T12:01:24;18.70;64.20
13416;DHT22;6779;50.150;8.680;2022-10-26T12:03:53;18.60;99.90
13416;DHT22;6779;50.150;8.680;2022-10-26T12:06:23;18.50;99.90
13416;DHT22;6779;50.150;8.680;2022-10-26T12:09:12;18.50;99.90
13416;DHT22;6779;50.150;8.680;2022-10-26T12:11:45;18.40;99.90
13416;DHT22;6779;50.150;8.680;2022-10-26T12:19:23;18.40;99.90
13416;DHT22;6779;50.150;8.680;2022-10-26T12:21:51;18.40;99.90
13416;DHT22;6779;50.150;8.680;2022-10-26T12:26:58;18.40;1.00
13416;DHT22;6779;50.150;8.680;2022-10-26T12:29:29;18.40;1.00
13416;DHT22;6779;50.150;8.680;2022-10-26T12:31:55;18.30;1.00
13416;DHT22;6779;50.150;8.680;2022-10-26T12:39:35;18.30;20.00
13416;DHT22;6779;50.150;8.680;2022-10-26T13:03:38;18.40;42.20
13416;DHT22;6779;50.150;8.680;2022-10-26T13:08:55;18.50;1.00
13416;DHT22;6779;50.150;8.680;2022-10-26T13:11:31;18.50;1.00
13416;DHT22;6779;50.150;8.680;2022-10-26T13:14:04;18.50;5.50
13416;DHT22;6779;50.150;8.680;2022-10-26T13:16:31;18.70;1.00
13416;DHT22;6779;50.150;8.680;2022-10-26T13:18:57;18.90;1.00
13416;DHT22;6779;50.150;8.680;2022-10-26T13:21:24;19.00;99.90
13416;DHT22;6779;50.150;8.680;2022-10-26T13:26:24;19.10;99.90
13416;DHT22;6779;50.150;8.680;2022-10-26T13:28:55;19.20;99.90
13416;DHT22;6779;50.150;8.680;2022-10-26T13:33:59;19.20;72.60
13416;DHT22;6779;50.150;8.680;2022-10-26T13:36:33;19.30;99.90
13416;DHT22;6779;50.150;8.680;2022-10-26T13:39:05;19.30;99.90
13416;DHT22;6779;50.150;8.680;2022-10-26T13:41:37;19.50;99.90
13416;DHT22;6779;50.150;8.680;2022-10-26T13:44:05;19.70;72.10
13416;DHT22;6779;50.150;8.680;2022-10-26T13:46:37;19.60;1.00
13416;DHT22;6779;50.150;8.680;2022-10-26T13:49:21;19.60;1.00
13416;DHT22;6779;50.150;8.680;2022-10-26T13:51:50;19.60;1.00
13416;DHT22;6779;50.150;8.680;2022-10-26T13:54:33;19.40;1.00
13416;DHT22;6779;50.150;8.680;2022-10-26T13:57:03;19.40;1.00
13416;DHT22;6779;50.150;8.680;2022-10-26T13:59:32;19.30;1.00
13416;DHT22;6779;50.150;8.680;2022-10-26T14:02:20;19.40;1.00
13416;DHT22;6779;50.150;8.680;2022-10-26T14:04:58;19.40;1.00
13416;DHT22;6779;50.150;8.680;2022-10-26T14:07:46;19.50;1.00
13416;DHT22;6779;50.150;8.680;2022-10-26T14:10:25;19.50;1.00
13416;DHT22;6779;50.150;8.680;2022-10-26T14:12:51;19.50;1.00
13416;DHT22;6779;50.150;8.680;2022-10-26T14:15:23;19.50;1.00
13416;DHT22;6779;50.150;8.680;2022-10-26T14:17:50;19.40;1.00
13416;DHT22;6779;50.150;8.680;2022-10-26T14:20:18;19.40;1.00
13416;DHT22;6779;50.150;8.680;2022-10-26T14:22:44;19.30;63.20
13416;DHT22;6779;50.150;8.680;2022-10-26T14:25:27;19.30;1.00
13416;DHT22;6779;50.150;8.680;2022-10-26T14:27:54;19.30;1.00
13416;DHT22;6779;50.150;8.680;2022-10-26T14:30:23;19.30;1.00
13416;DHT22;6779;50.150;8.680;2022-10-26T14:32:50;19.30;1.00
13416;DHT22;6779;50.150;8.680;2022-10-26T14:35:17;19.40;1.00
13416;DHT22;6779;50.150;8.680;2022-10-26T14:40:26;19.30;1.00
13416;DHT22;6779;50.150;8.680;2022-10-26T14:42:55;19.30;1.00
13416;DHT22;6779;50.150;8.680;2022-10-26T14:45:35;19.30;1.00
13416;DHT22;6779;50.150;8.680;2022-10-26T14:48:03;19.30;1.00
13416;DHT22;6779;50.150;8.680;2022-10-26T14:50:30;19.30;1.00
13416;DHT22;6779;50.150;8.680;2022-10-26T14:53:03;19.20;5.80
13416;DHT22;6779;50.150;8.680;2022-10-26T14:55:29;19.10;99.90
13416;DHT22;6779;50.150;8.680;2022-10-26T14:58:07;19.20;42.90
13416;DHT22;6779;50.150;8.680;2022-10-26T15:00:37;19.10;99.90
13416;DHT22;6779;50.150;8.680;2022-10-26T15:03:04;19.10;99.90
13416;DHT22;6779;50.150;8.680;2022-10-26T15:05:32;19.10;99.90
13416;DHT22;6779;50.150;8.680;2022-10-26T15:07:58;19.00;99.90
13416;DHT22;6779;50.150;8.680;2022-10-26T15:13:30;18.90;99.90
13416;DHT22;6779;50.150;8.680;2022-10-26T15:16:19;19.00;99.90
13416;DHT22;6779;50.150;8.680;2022-10-26T15:18:48;19.00;99.90
13416;DHT22;6779;50.150;8.680;2022-10-26T15:21:23;19.00;99.90
13416;DHT22;6779;50.150;8.680;2022-10-26T15:23:51;18.90;1.00
13416;DHT22;6779;50.150;8.680;2022-10-26T15:26:17;18.80;87.70
13416;DHT22;6779;50.150;8.680;2022-10-26T15:28:43;18.80;99.90
13416;DHT22;6779;50.150;8.680;2022-10-26T15:36:13;18.50;99.90
13416;DHT22;6779;50.150;8.680;2022-10-26T15:38:39;18.40;1.00
13416;DHT22;6779;50.150;8.680;2022-10-26T15:41:25;18.30;99.90
13416;DHT22;6779;50.150;8.680;2022-10-26T15:43:52;18.30;99.90
13416;DHT22;6779;50.150;8.680;2022-10-26T15:46:21;18.10;64.50
13416;DHT22;6779;50.150;8.680;2022-10-26T15:48:53;18.10;99.90
13416;DHT22;6779;50.150;8.680;2022-10-26T15:51:19;18.00;1.00
13416;DHT22;6779;50.150;8.680;2022-10-26T15:53:45;17.90;99.90
13416;DHT22;6779;50.150;8.680;2022-10-26T15:56:16;17.80;99.90
13416;DHT22;6779;50.150;8.680;2022-10-26T15:58:42;17.80;99.90
13416;DHT22;6779;50.150;8.680;2022-10-26T16:01:22;17.70;99.90
13416;DHT22;6779;50.150;8.680;2022-10-26T16:03:48;17.60;1.00
13416;DHT22;6779;50.150;8.680;2022-10-26T16:06:28;17.60;99.90
13416;DHT22;6779;50.150;8.680;2022-10-26T16:08:56;17.60;1.00
13416;DHT22;6779;50.150;8.680;2022-10-26T16:11:22;17.50;1.00
13416;DHT22;6779;50.150;8.680;2022-10-26T16:13:48;17.40;1.00
13416;DHT22;6779;50.150;8.680;2022-10-26T16:16:18;17.40;1.00
13416;DHT22;6779;50.150;8.680;2022-10-26T16:18:44;17.30;1.00
13416;DHT22;6779;50.150;8.680;2022-10-26T16:21:15;17.20;27.60
13416;DHT22;6779;50.150;8.680;2022-10-26T16:23:41;17.20;23.40
13416;DHT22;6779;50.150;8.680;2022-10-26T16:26:07;17.10;22.70
13416;DHT22;6779;50.150;8.680;2022-10-26T16:28:33;17.20;1.00
13416;DHT22;6779;50.150;8.680;2022-10-26T16:31:04;17.20;1.00
13416;DHT22;6779;50.150;8.680;2022-10-26T16:33:30;17.00;11.00
13416;DHT22;6779;50.150;8.680;2022-10-26T16:35:57;16.90;54.00
13416;DHT22;6779;50.150;8.680;2022-10-26T16:38:23;16.90;61.30
13416;DHT22;6779;50.150;8.680;2022-10-26T16:40:49;16.90;40.90
13416;DHT22;6779;50.150;8.680;2022-10-26T16:43:15;16.90;24.00
13416;DHT22;6779;50.150;8.680;2022-10-26T16:45:40;17.00;1.00
13416;DHT22;6779;50.150;8.680;2022-10-26T16:48:07;16.90;15.50
13416;DHT22;6779;50.150;8.680;2022-10-26T16:50:38;16.70;45.00
13416;DHT22;6779;50.150;8.680;2022-10-26T16:53:04;16.70;89.50
13416;DHT22;6779;50.150;8.680;2022-10-26T16:55:29;16.60;97.90
13416;DHT22;6779;50.150;8.680;2022-10-26T16:57:55;16.50;99.90
13416;DHT22;6779;50.150;8.680;2022-10-26T17:00:20;16.40;99.90
13416;DHT22;6779;50.150;8.680;2022-10-26T17:02:46;16.40;99.90
13416;DHT22;6779;50.150;8.680;2022-10-26T17:05:11;16.30;99.90
13416;DHT22;6779;50.150;8.680;2022-10-26T17:07:37;16.30;99.90
13416;DHT22;6779;50.150;8.680;2022-10-26T17:10:03;16.20;99.90
13416;DHT22;6779;50.150;8.680;2022-10-26T17:12:28;16.20;99.90
13416;DHT22;6779;50.150;8.680;2022-10-26T17:14:54;16.20;99.90
13416;DHT22;6779;50.150;8.680;2022-10-26T17:17:22;16.20;99.90
13416;DHT22;6779;50.150;8.680;2022-10-26T17:19:48;16.20;99.90
13416;DHT22;6779;50.150;8.680;2022-10-26T17:22:13;16.10;99.90
13416;DHT22;6779;50.150;8.680;2022-10-26T17:24:39;16.20;99.90
13416;DHT22;6779;50.150;8.680;2022-10-26T17:27:04;16.20;99.90
13416;DHT22;6779;50.150;8.680;2022-10-26T17:29:30;16.30;99.90
13416;DHT22;6779;50.150;8.680;2022-10-26T17:31:55;16.30;99.90
13416;DHT22;6779;50.150;8.680;2022-10-26T17:34:21;16.30;99.90
13416;DHT22;6779;50.150;8.680;2022-10-26T17:36:47;16.40;99.90
13416;DHT22;6779;50.150;8.680;2022-10-26T17:39:12;16.30;99.90
13416;DHT22;6779;50.150;8.680;2022-10-26T17:41:38;16.40;99.90
13416;DHT22;6779;50.150;8.680;2022-10-26T17:44:03;16.40;99.90
13416;DHT22;6779;50.150;8.680;2022-10-26T17:46:29;16.40;99.90
13416;DHT22;6779;50.150;8.680;2022-10-26T17:48:56;16.30;99.90
13416;DHT22;6779;50.150;8.680;2022-10-26T17:51:22;16.40;99.90
13416;DHT22;6779;50.150;8.680;2022-10-26T17:53:50;16.50;99.90
13416;DHT22;6779;50.150;8.680;2022-10-26T17:56:19;16.40;99.90
13416;DHT22;6779;50.150;8.680;2022-10-26T17:58:50;16.50;99.90
13416;DHT22;6779;50.150;8.680;2022-10-26T18:01:16;16.30;99.90
13416;DHT22;6779;50.150;8.680;2022-10-26T18:03:41;16.20;99.90
13416;DHT22;6779;50.150;8.680;2022-10-26T18:06:07;16.20;99.90
13416;DHT22;6779;50.150;8.680;2022-10-26T18:08:34;16.30;99.90
13416;DHT22;6779;50.150;8.680;2022-10-26T18:11:00;16.40;99.90
13416;DHT22;6779;50.150;8.680;2022-10-26T18:13:27;16.40;99.90
13416;DHT22;6779;50.150;8.680;2022-10-26T18:16:07;16.40;99.90
13416;DHT22;6779;50.150;8.680;2022-10-26T18:18:34;16.40;99.90
13416;DHT22;6779;50.150;8.680;2022-10-26T18:21:08;16.40;99.90
13416;DHT22;6779;50.150;8.680;2022-10-26T18:23:35;16.50;99.90